createdAt,value
2023-01-19T00:03:17.788Z,42.94
2023-01-19T00:08:21.242Z,43.04
2023-01-19T00:13:26.213Z,44.02
2023-01-19T00:18:29.687Z,43.49
2023-01-19T00:23:33.013Z,42.89
2023-01-19T00:28:38.725Z,42.39
2023-01-19T00:33:42.150Z,40.96
2023-01-19T00:38:45.732Z,41.96
2023-01-19T00:43:50.694Z,41.97
2023-01-19T00:48:54.022Z,42.33
2023-01-19T00:53:57.396Z,41.84
2023-01-19T00:59:02.162Z,41.20
2023-01-19T01:04:05.754Z,40.94
2023-01-19T01:09:11.902Z,42.09
2023-01-19T01:14:17.251Z,40.42
2023-01-19T01:19:21.358Z,40.79
2023-01-19T01:24:24.766Z,40.92
2023-01-19T01:29:29.591Z,40.81
2023-01-19T01:34:33.001Z,42.08
2023-01-19T01:39:39.293Z,42.34
2023-01-19T01:44:52.301Z,42.04
2023-01-19T01:49:59.060Z,42.25
2023-01-19T01:55:06.785Z,41.58
2023-01-19T02:00:12.752Z,42.44
2023-01-19T02:05:18.742Z,41.35
2023-01-19T02:10:39.870Z,42.11
2023-01-19T02:15:44.661Z,42.92
2023-01-19T02:20:54.273Z,42.37
2023-01-19T02:25:59.124Z,41.48
2023-01-19T02:31:02.602Z,41.28
2023-01-19T02:36:08.778Z,43.02
2023-01-19T02:41:16.476Z,44.06
2023-01-19T02:46:20.011Z,42.93
2023-01-19T02:51:25.109Z,42.32
2023-01-19T02:56:40.866Z,43.19
2023-01-19T03:02:05.406Z,43.93
2023-01-19T03:07:12.397Z,42.16
2023-01-19T03:12:23.104Z,43.25
2023-01-19T03:17:27.324Z,42.21
2023-01-19T03:22:30.893Z,43.26
2023-01-19T03:27:40.786Z,43.39
2023-01-19T03:32:48.650Z,44.19
2023-01-19T03:37:54.095Z,43.27
2023-01-19T03:43:00.695Z,43.21
2023-01-19T03:48:05.058Z,44.77
2023-01-19T03:53:10.562Z,43.84
2023-01-19T03:58:15.384Z,44.32
2023-01-19T04:03:19.709Z,46.02
2023-01-19T04:08:23.091Z,44.09
2023-01-19T04:13:28.565Z,45.54
2023-01-19T04:18:34.680Z,46.42
2023-01-19T04:23:38.167Z,46.46
2023-01-19T04:28:42.957Z,46.51
2023-01-19T04:33:46.367Z,45.39
2023-01-19T04:38:49.815Z,43.56
2023-01-19T04:43:54.632Z,44.51
2023-01-19T04:48:58.138Z,44.34
2023-01-19T04:54:01.619Z,43.91
2023-01-19T04:59:06.370Z,43.89
2023-01-19T05:04:09.810Z,44.08
2023-01-19T05:09:15.168Z,43.65
2023-01-19T05:14:20.088Z,44.90
2023-01-19T05:19:23.666Z,44.11
2023-01-19T05:24:27.039Z,43.59
2023-01-19T05:29:31.763Z,44.10
2023-01-19T05:34:35.311Z,42.32
2023-01-19T05:39:38.889Z,42.51
2023-01-19T05:45:11.864Z,41.95
2023-01-19T05:50:36.253Z,42.99
2023-01-19T05:55:39.640Z,43.47
2023-01-19T06:00:44.389Z,43.84
2023-01-19T06:05:47.946Z,42.38
2023-01-19T06:10:51.313Z,41.13
2023-01-19T06:16:00.182Z,42.72
2023-01-19T06:21:05.261Z,43.16
2023-01-19T06:26:08.666Z,42.51
2023-01-19T06:31:13.501Z,42.95
2023-01-19T06:36:16.938Z,42.80
2023-01-19T06:41:20.295Z,42.68
2023-01-19T06:46:26.033Z,43.24
2023-01-19T06:51:29.403Z,41.08
2023-01-19T06:56:32.753Z,42.58
2023-01-19T07:01:37.682Z,42.93
2023-01-19T07:06:41.518Z,41.17
2023-01-19T07:11:44.869Z,41.71
2023-01-19T07:16:49.664Z,40.60
2023-01-19T07:21:53.088Z,41.86
2023-01-19T07:26:56.441Z,41.83
2023-01-19T07:32:01.168Z,41.38
2023-01-19T07:37:04.738Z,41.10
2023-01-19T07:42:08.112Z,40.62
2023-01-19T07:47:15.151Z,40.55
2023-01-19T07:52:18.547Z,41.35
2023-01-19T07:57:22.087Z,41.67
2023-01-19T08:02:26.936Z,41.05
2023-01-19T08:07:30.435Z,42.22
2023-01-19T08:12:33.836Z,40.34
2023-01-19T08:17:38.757Z,42.32
2023-01-19T08:22:42.097Z,42.01
2023-01-19T08:27:45.855Z,42.40
2023-01-19T08:32:50.743Z,41.52
2023-01-19T08:37:54.168Z,41.44
2023-01-19T08:43:03.468Z,42.00
2023-01-19T08:48:09.850Z,41.60
2023-01-19T08:53:13.245Z,39.90
2023-01-19T08:58:17.394Z,42.81
2023-01-19T09:03:22.585Z,42.20
2023-01-19T09:08:26.083Z,42.76
2023-01-19T09:13:49.777Z,43.60
2023-01-19T09:18:54.790Z,44.43
2023-01-19T09:23:58.297Z,43.21
2023-01-19T09:29:01.764Z,46.58
2023-01-19T09:34:07.789Z,45.92
2023-01-19T09:39:11.590Z,44.81
2023-01-19T09:44:19.320Z,44.37
2023-01-19T09:49:28.032Z,44.02
2023-01-19T09:54:37.326Z,46.22
2023-01-19T09:59:41.519Z,46.21
2023-01-19T10:04:49.190Z,44.55
2023-01-19T10:10:05.180Z,45.58
2023-01-19T10:15:16.763Z,47.71
2023-01-19T10:20:27.061Z,46.16
2023-01-19T10:25:30.758Z,47.07
2023-01-19T10:30:34.425Z,48.42
2023-01-19T10:35:39.482Z,47.91
2023-01-19T10:40:47.795Z,48.75
2023-01-19T10:45:51.738Z,48.02
2023-01-19T10:51:05.177Z,45.68
2023-01-19T10:56:17.465Z,48.20
2023-01-19T11:01:22.892Z,47.29
2023-01-19T11:06:29.942Z,46.01
2023-01-19T11:11:43.256Z,49.22
2023-01-19T11:16:49.543Z,47.92
2023-01-19T11:21:54.931Z,49.55
2023-01-19T11:27:02.929Z,46.31
2023-01-19T11:32:18.995Z,46.33
2023-01-19T11:37:34.547Z,45.88
2023-01-19T11:42:38.326Z,45.50
2023-01-19T11:47:44.436Z,45.67
2023-01-19T11:52:53.582Z,45.99
2023-01-19T11:57:57.317Z,46.19
2023-01-19T12:03:25.604Z,47.47
2023-01-19T12:08:34.062Z,46.41
2023-01-19T12:13:37.516Z,47.21
2023-01-19T12:18:45.003Z,47.30
2023-01-19T12:23:57.268Z,47.50
2023-01-19T12:29:04.389Z,46.26
2023-01-19T12:34:32.047Z,46.40
2023-01-19T12:39:48.719Z,47.05
2023-01-19T12:44:55.774Z,47.63
2023-01-19T12:50:03.635Z,45.50
2023-01-19T12:55:24.251Z,45.98
2023-01-19T13:00:34.136Z,45.79
2023-01-19T13:05:58.581Z,46.92
2023-01-19T13:11:23.710Z,45.22
2023-01-19T13:17:02.278Z,45.31
2023-01-19T13:22:43.136Z,45.77
2023-01-19T13:27:49.792Z,46.79
2023-01-19T13:33:17.111Z,48.16
2023-01-19T13:38:20.464Z,48.54
2023-01-19T13:43:29.484Z,46.94
2023-01-19T13:48:33.517Z,47.55
2023-01-19T13:53:36.949Z,46.45
2023-01-19T13:58:41.683Z,47.40
2023-01-19T14:03:52.084Z,47.29
2023-01-19T14:09:09.300Z,47.99
2023-01-19T14:14:27.751Z,47.01
2023-01-19T14:19:31.250Z,47.44
2023-01-19T14:24:34.794Z,46.67
2023-01-19T14:29:39.543Z,47.30
2023-01-19T14:34:44.697Z,45.88
2023-01-19T14:39:50.168Z,45.94
2023-01-19T14:44:56.644Z,45.84
2023-01-19T14:50:04.875Z,47.00
2023-01-19T14:55:19.186Z,47.31
2023-01-19T15:00:24.625Z,48.14
2023-01-19T15:05:28.034Z,48.71
2023-01-19T15:10:31.518Z,49.06
2023-01-19T15:15:36.654Z,48.16
2023-01-19T15:20:40.048Z,47.94
2023-01-19T15:25:43.439Z,47.12
2023-01-19T15:30:48.197Z,47.40
2023-01-19T15:35:51.798Z,47.50
2023-01-19T15:40:55.165Z,47.04
2023-01-19T15:46:01.814Z,47.08
2023-01-19T15:51:05.661Z,48.52
2023-01-19T15:56:14.501Z,47.33
2023-01-19T16:01:21.275Z,48.58
2023-01-19T16:06:24.740Z,48.07
2023-01-19T16:11:28.782Z,46.55
2023-01-19T16:16:33.737Z,46.20
2023-01-19T16:21:37.207Z,47.79
2023-01-19T16:26:41.055Z,47.73
2023-01-19T16:31:46.039Z,47.69
2023-01-19T16:36:49.830Z,46.81
2023-01-19T16:41:53.273Z,47.32
2023-01-19T16:46:57.994Z,48.16
2023-01-19T16:52:01.576Z,47.41
2023-01-19T16:57:05.154Z,47.24
2023-01-19T17:02:11.450Z,47.21
2023-01-19T17:07:14.838Z,46.96
2023-01-19T17:12:18.180Z,46.71
2023-01-19T17:17:22.853Z,46.11
2023-01-19T17:22:26.307Z,46.72
2023-01-19T17:27:29.929Z,45.98
2023-01-19T17:32:34.627Z,46.54
2023-01-19T17:37:37.966Z,47.17
2023-01-19T17:42:41.976Z,47.85
2023-01-19T17:47:49.218Z,46.82
2023-01-19T17:52:52.718Z,47.06
2023-01-19T17:57:56.110Z,46.43
2023-01-19T18:03:00.887Z,46.36
2023-01-19T18:08:04.289Z,46.60
2023-01-19T18:13:07.635Z,45.75
2023-01-19T18:18:12.329Z,47.47
2023-01-19T18:23:15.716Z,46.15
2023-01-19T18:28:19.057Z,46.48
2023-01-19T18:33:24.147Z,46.32
2023-01-19T18:38:27.522Z,46.75
2023-01-19T18:43:30.882Z,45.91
2023-01-19T18:48:36.389Z,44.24
2023-01-19T18:53:40.199Z,44.82
2023-01-19T18:58:44.702Z,45.25
2023-01-19T19:03:49.523Z,44.77
2023-01-19T19:08:53.968Z,44.52
2023-01-19T19:13:59.032Z,45.01
2023-01-19T19:19:03.713Z,45.18
2023-01-19T19:24:11.227Z,46.35
2023-01-19T19:29:14.654Z,46.78
2023-01-19T19:34:19.382Z,46.17
2023-01-19T19:39:22.749Z,46.61
2023-01-19T19:44:26.074Z,47.34
2023-01-19T19:49:30.736Z,46.69
2023-01-19T19:54:34.148Z,45.94
2023-01-19T19:59:37.557Z,47.05
2023-01-19T20:04:42.925Z,46.02
2023-01-19T20:09:46.372Z,44.60
2023-01-19T20:14:49.810Z,44.87
2023-01-19T20:19:54.553Z,45.09
2023-01-19T20:24:57.940Z,44.98
2023-01-19T20:30:01.446Z,45.66
2023-01-19T20:35:07.173Z,45.44
2023-01-19T20:40:11.056Z,44.36
2023-01-19T20:45:21.750Z,44.23
2023-01-19T20:50:26.494Z,43.51
2023-01-19T20:55:45.100Z,43.81
2023-01-19T21:00:48.757Z,43.40
2023-01-19T21:05:53.433Z,43.27
2023-01-19T21:10:59.873Z,43.17
2023-01-19T21:16:03.492Z,44.22
2023-01-19T21:21:14.932Z,44.28
2023-01-19T21:26:24.485Z,43.92
2023-01-19T21:31:28.610Z,43.42
2023-01-19T21:36:33.394Z,43.58
2023-01-19T21:41:38.015Z,43.40
2023-01-19T21:46:41.485Z,43.28
2023-01-19T21:51:47.948Z,43.97
2023-01-19T21:56:51.513Z,44.31
2023-01-19T22:01:55.123Z,44.29
2023-01-19T22:06:59.864Z,43.81
2023-01-19T22:12:03.423Z,43.64
2023-01-19T22:17:06.739Z,44.42
2023-01-19T22:22:11.441Z,44.68
2023-01-19T22:27:14.928Z,44.31
2023-01-19T22:32:18.413Z,45.01
2023-01-19T22:37:23.165Z,44.40
2023-01-19T22:42:26.590Z,44.40
2023-01-19T22:47:29.998Z,44.65
2023-01-19T22:52:34.764Z,44.80
2023-01-19T22:57:39.568Z,44.45
2023-01-19T23:02:43.120Z,44.22
2023-01-19T23:07:47.821Z,44.04
2023-01-19T23:12:51.246Z,43.81
2023-01-19T23:17:54.609Z,44.04
2023-01-19T23:22:59.392Z,44.14
2023-01-19T23:28:02.832Z,44.21
2023-01-19T23:33:06.248Z,44.07
2023-01-19T23:38:11.003Z,43.89
2023-01-19T23:43:14.451Z,44.18
2023-01-19T23:48:17.856Z,43.77
2023-01-19T23:53:22.542Z,43.78
2023-01-19T23:58:25.923Z,43.41
